createdAt,value
2018-06-10T00:01:59.055Z,21.30
2018-06-10T00:04:29.091Z,21.30
2018-06-10T00:06:59.090Z,21.30
2018-06-10T00:09:29.250Z,21.30
2018-06-10T00:11:59.237Z,21.30
2018-06-10T00:14:29.271Z,21.30
2018-06-10T00:16:59.247Z,21.30
2018-06-10T00:19:29.219Z,21.30
2018-06-10T00:21:59.105Z,21.40
2018-06-10T00:24:29.082Z,21.40
2018-06-10T00:26:59.053Z,21.40
2018-06-10T00:29:29.074Z,21.40
2018-06-10T00:31:59.079Z,21.40
2018-06-10T00:34:29.088Z,21.40
2018-06-10T00:36:59.111Z,21.40
2018-06-10T00:39:29.089Z,21.40
2018-06-10T00:44:28.736Z,21.40
2018-06-10T00:46:58.790Z,21.40
2018-06-10T00:49:28.808Z,21.30
2018-06-10T00:51:58.809Z,21.30
2018-06-10T00:54:28.719Z,21.30
2018-06-10T00:56:58.648Z,21.30
2018-06-10T00:59:28.692Z,21.30
2018-06-10T01:01:58.676Z,21.30
2018-06-10T01:04:28.622Z,21.30
2018-06-10T01:06:58.670Z,21.30
2018-06-10T01:09:28.639Z,21.30
2018-06-10T01:11:58.658Z,21.30
2018-06-10T01:14:28.670Z,21.20
2018-06-10T01:16:58.599Z,21.20
2018-06-10T01:19:28.832Z,21.20
2018-06-10T01:21:58.793Z,21.10
2018-06-10T01:24:28.770Z,21.10
2018-06-10T01:26:58.846Z,21.00
2018-06-10T01:29:28.796Z,21.00
2018-06-10T01:31:58.751Z,21.00
2018-06-10T01:36:58.235Z,21.00
2018-06-10T01:39:28.216Z,21.00
2018-06-10T01:41:58.231Z,20.90
2018-06-10T01:44:28.198Z,20.90
2018-06-10T01:46:58.175Z,20.80
2018-06-10T01:49:28.171Z,20.80
2018-06-10T01:51:58.126Z,20.80
2018-06-10T01:54:28.130Z,20.80
2018-06-10T01:56:58.083Z,20.80
2018-06-10T01:59:28.142Z,20.70
2018-06-10T02:01:58.138Z,20.70
2018-06-10T02:04:28.116Z,20.70
2018-06-10T02:06:58.153Z,20.70
2018-06-10T02:09:28.140Z,20.70
2018-06-10T02:11:58.168Z,20.60
2018-06-10T02:14:28.159Z,20.60
2018-06-10T02:16:58.170Z,20.60
2018-06-10T02:19:28.157Z,20.60
2018-06-10T02:21:58.290Z,20.50
2018-06-10T02:24:28.303Z,20.50
2018-06-10T02:31:57.480Z,20.50
2018-06-10T02:34:27.406Z,20.50
2018-06-10T02:36:57.449Z,20.40
2018-06-10T02:39:27.403Z,20.40
2018-06-10T02:41:57.367Z,20.40
2018-06-10T02:44:27.403Z,20.30
2018-06-10T02:46:57.423Z,20.30
2018-06-10T02:49:27.479Z,20.30
2018-06-10T02:51:57.497Z,20.30
2018-06-10T02:54:27.553Z,20.30
2018-06-10T02:56:57.530Z,20.20
2018-06-10T02:59:27.527Z,20.20
2018-06-10T03:01:57.523Z,20.10
2018-06-10T03:04:27.487Z,20.10
2018-06-10T03:06:57.511Z,20.00
2018-06-10T03:09:27.533Z,20.00
2018-06-10T03:11:57.600Z,20.00
2018-06-10T03:14:27.636Z,20.00
2018-06-10T03:16:57.646Z,19.90
2018-06-10T03:19:27.596Z,19.90
2018-06-10T03:21:57.631Z,19.90
2018-06-10T03:24:27.661Z,19.90
2018-06-10T03:26:57.706Z,19.90
2018-06-10T03:29:27.783Z,19.90
2018-06-10T03:31:57.767Z,19.90
2018-06-10T03:34:27.860Z,19.90
2018-06-10T03:36:57.866Z,19.90
2018-06-10T03:39:27.850Z,19.80
2018-06-10T03:41:57.860Z,19.90
2018-06-10T03:44:27.803Z,19.80
2018-06-10T03:46:57.816Z,19.80
2018-06-10T03:49:27.900Z,19.80
2018-06-10T03:51:57.960Z,19.80
2018-06-10T03:54:27.969Z,19.80
2018-06-10T03:56:57.957Z,19.80
2018-06-10T03:59:28.000Z,19.80
2018-06-10T04:01:57.969Z,19.80
2018-06-10T04:06:57.531Z,19.80
2018-06-10T04:09:27.613Z,19.80
2018-06-10T04:11:57.647Z,19.80
2018-06-10T04:14:27.641Z,19.80
2018-06-10T04:16:57.699Z,19.80
2018-06-10T04:19:27.732Z,19.80
2018-06-10T04:21:57.777Z,19.80
2018-06-10T04:24:27.800Z,19.80
2018-06-10T04:26:57.851Z,19.80
2018-06-10T04:29:27.945Z,19.80
2018-06-10T04:34:27.570Z,19.80
2018-06-10T04:36:57.647Z,19.80
2018-06-10T04:39:27.630Z,19.80
2018-06-10T04:41:57.551Z,19.80
2018-06-10T04:44:27.563Z,19.80
2018-06-10T04:46:57.600Z,19.80
2018-06-10T04:49:27.643Z,19.80
2018-06-10T04:51:57.792Z,19.80
2018-06-10T04:56:57.476Z,19.80
2018-06-10T04:59:27.470Z,19.80
2018-06-10T05:01:57.490Z,19.80
2018-06-10T05:04:27.491Z,19.70
2018-06-10T05:06:57.577Z,19.80
2018-06-10T05:09:27.591Z,19.70
2018-06-10T05:11:57.620Z,19.80
2018-06-10T05:14:27.679Z,19.70
2018-06-10T05:16:57.738Z,19.70
2018-06-10T05:19:27.730Z,19.70
2018-06-10T05:21:57.717Z,19.80
2018-06-10T05:24:27.723Z,19.80
2018-06-10T05:29:27.386Z,19.80
2018-06-10T05:31:57.392Z,19.80
2018-06-10T05:34:27.399Z,19.80
2018-06-10T05:36:57.490Z,19.80
2018-06-10T05:44:26.762Z,19.90
2018-06-10T05:46:56.727Z,19.90
2018-06-10T05:49:26.692Z,19.90
2018-06-10T05:51:56.697Z,19.90
2018-06-10T05:54:26.677Z,19.90
2018-06-10T05:56:56.772Z,19.90
2018-06-10T05:59:26.771Z,19.90
2018-06-10T06:02:02.134Z,19.90
2018-06-10T06:04:32.180Z,19.90
2018-06-10T06:07:02.094Z,20.00
2018-06-10T06:09:32.159Z,20.00
2018-06-10T06:12:02.224Z,20.00
2018-06-10T06:14:32.242Z,20.00
2018-06-10T06:17:02.228Z,20.00
2018-06-10T06:19:32.133Z,20.10
2018-06-10T06:22:03.659Z,20.10
2018-06-10T06:24:33.802Z,20.10
2018-06-10T06:27:04.483Z,20.10
2018-06-10T06:29:34.516Z,20.10
2018-06-10T06:32:04.573Z,20.10
2018-06-10T06:34:34.612Z,20.20
2018-06-10T06:37:04.656Z,20.20
2018-06-10T06:39:34.690Z,20.20
2018-06-10T06:42:04.716Z,20.20
2018-06-10T06:44:34.724Z,20.20
2018-06-10T06:47:04.866Z,20.30
2018-06-10T06:49:34.940Z,20.30
2018-06-10T06:52:05.084Z,20.30
2018-06-10T06:54:35.022Z,20.30
2018-06-10T06:57:05.128Z,20.30
2018-06-10T06:59:35.208Z,20.30
2018-06-10T07:02:05.276Z,20.30
2018-06-10T07:04:35.258Z,20.30
2018-06-10T07:07:05.280Z,20.40
2018-06-10T07:09:35.290Z,20.40
2018-06-10T07:12:05.403Z,20.40
2018-06-10T07:14:35.549Z,20.50
2018-06-10T07:17:06.223Z,20.50
2018-06-10T07:19:36.301Z,20.50
2018-06-10T07:22:06.373Z,20.60
2018-06-10T07:24:36.464Z,20.60
2018-06-10T07:27:06.609Z,20.60
2018-06-10T07:29:36.603Z,20.70
2018-06-10T07:32:06.677Z,20.70
2018-06-10T07:34:36.716Z,20.80
2018-06-10T07:37:06.784Z,20.80
2018-06-10T07:39:36.785Z,20.90
2018-06-10T07:42:06.807Z,20.90
2018-06-10T07:44:36.816Z,20.90
2018-06-10T07:47:06.880Z,21.00
2018-06-10T07:49:36.975Z,21.00
2018-06-10T07:52:07.160Z,21.10
2018-06-10T07:54:37.272Z,21.20
2018-06-10T07:57:07.770Z,21.30
2018-06-10T07:59:37.851Z,21.40
2018-06-10T08:02:07.960Z,21.50
2018-06-10T08:04:37.996Z,21.60
2018-06-10T08:07:08.046Z,21.70
2018-06-10T08:09:38.073Z,21.70
2018-06-10T08:12:08.169Z,21.80
2018-06-10T08:14:38.220Z,21.90
2018-06-10T08:19:37.895Z,22.00
2018-06-10T08:22:07.923Z,22.10
2018-06-10T08:24:38.082Z,22.10
2018-06-10T08:27:08.167Z,22.20
2018-06-10T08:29:38.104Z,22.20
2018-06-10T08:32:08.227Z,22.30
2018-06-10T08:34:38.249Z,22.30
2018-06-10T08:37:08.443Z,22.40
2018-06-10T08:39:38.438Z,22.40
2018-06-10T08:42:08.537Z,22.40
2018-06-10T08:47:10.201Z,22.50
2018-06-10T08:52:09.880Z,22.60
2018-06-10T08:54:43.730Z,22.70
2018-06-10T08:57:13.757Z,22.80
2018-06-10T08:59:43.802Z,22.90
2018-06-10T09:02:13.989Z,23.00
2018-06-10T09:04:44.044Z,23.10
2018-06-10T09:07:14.106Z,23.20
2018-06-10T09:09:44.157Z,23.30
2018-06-10T09:12:14.245Z,23.40
2018-06-10T09:14:44.300Z,23.50
2018-06-10T09:17:14.357Z,23.60
2018-06-10T09:19:44.363Z,23.70
2018-06-10T09:22:14.495Z,23.80
2018-06-10T09:24:44.461Z,23.80
2018-06-10T09:27:17.184Z,23.90
2018-06-10T09:29:47.291Z,24.00
2018-06-10T09:32:17.397Z,24.00
2018-06-10T09:34:47.425Z,24.10
2018-06-10T09:37:18.036Z,24.10
2018-06-10T09:39:48.015Z,24.10
2018-06-10T09:42:18.063Z,24.20
2018-06-10T09:44:48.100Z,24.20
2018-06-10T09:47:18.080Z,24.20
2018-06-10T09:49:48.293Z,24.20
2018-06-10T09:52:18.302Z,24.20
2018-06-10T09:54:48.369Z,24.20
2018-06-10T09:57:18.397Z,24.30
2018-06-10T09:59:48.487Z,24.30
2018-06-10T10:04:48.183Z,24.40
2018-06-10T10:07:18.309Z,24.50
2018-06-10T10:09:48.414Z,24.60
2018-06-10T10:12:18.416Z,24.70
2018-06-10T10:14:48.502Z,24.80
2018-06-10T10:17:18.636Z,24.80
2018-06-10T10:19:48.665Z,24.90
2018-06-10T10:22:18.683Z,24.90
2018-06-10T10:24:48.728Z,24.90
2018-06-10T10:27:18.828Z,24.90
2018-06-10T10:29:48.830Z,24.80
2018-06-10T10:32:18.911Z,24.80
2018-06-10T10:34:48.919Z,24.80
2018-06-10T10:37:19.009Z,24.80
2018-06-10T10:39:49.041Z,24.80
2018-06-10T10:42:19.130Z,24.80
2018-06-10T10:44:49.139Z,24.80
2018-06-10T10:47:19.236Z,24.90
2018-06-10T10:49:49.171Z,24.90
2018-06-10T10:52:19.276Z,25.00
2018-06-10T10:54:49.318Z,25.10
2018-06-10T10:57:19.368Z,25.10
2018-06-10T10:59:49.441Z,25.20
2018-06-10T11:02:19.581Z,25.30
2018-06-10T11:04:49.569Z,25.30
2018-06-10T11:07:19.550Z,25.30
2018-06-10T11:09:49.609Z,25.30
2018-06-10T11:12:19.637Z,25.30
2018-06-10T11:14:49.679Z,25.30
2018-06-10T11:17:19.720Z,25.30
2018-06-10T11:22:19.321Z,25.30
2018-06-10T11:24:49.391Z,25.40
2018-06-10T11:27:19.441Z,25.40
2018-06-10T11:29:49.440Z,25.50
2018-06-10T11:32:19.476Z,25.50
2018-06-10T11:34:49.521Z,25.60
2018-06-10T11:37:19.559Z,25.60
2018-06-10T11:39:49.693Z,25.60
2018-06-10T11:42:23.093Z,25.60
2018-06-10T11:44:54.184Z,25.50
2018-06-10T11:47:25.119Z,25.50
2018-06-10T11:49:55.293Z,25.50
2018-06-10T11:52:25.396Z,25.50
2018-06-10T11:54:55.473Z,25.60
2018-06-10T11:57:25.550Z,25.60
2018-06-10T11:59:55.630Z,25.60
2018-06-10T12:02:25.761Z,25.70
2018-06-10T12:04:55.800Z,25.80
2018-06-10T12:07:25.808Z,25.90
2018-06-10T12:09:55.840Z,25.90
2018-06-10T12:12:25.894Z,25.90
2018-06-10T12:14:55.948Z,25.90
2018-06-10T12:17:25.990Z,25.90
2018-06-10T12:19:56.132Z,25.90
2018-06-10T12:22:33.611Z,25.90
2018-06-10T12:25:03.672Z,26.00
2018-06-10T12:27:34.255Z,26.00
2018-06-10T12:32:34.079Z,26.00
2018-06-10T12:35:04.099Z,26.10
2018-06-10T12:37:34.372Z,26.00
2018-06-10T12:40:04.447Z,26.10
2018-06-10T12:42:34.529Z,26.10
2018-06-10T12:45:04.702Z,26.10
2018-06-10T12:47:34.773Z,26.20
2018-06-10T12:50:08.923Z,26.20
2018-06-10T12:52:38.944Z,26.20
2018-06-10T12:55:09.081Z,26.20
2018-06-10T12:57:39.101Z,26.20
2018-06-10T13:00:09.136Z,26.20
2018-06-10T13:02:39.184Z,26.20
2018-06-10T13:05:09.293Z,26.20
2018-06-10T13:07:39.509Z,26.20
2018-06-10T13:10:09.550Z,26.30
2018-06-10T13:12:39.676Z,26.30
2018-06-10T13:15:09.698Z,26.40
2018-06-10T13:20:09.438Z,26.50
2018-06-10T13:22:39.404Z,26.50
2018-06-10T13:25:09.452Z,26.50
2018-06-10T13:27:39.569Z,26.50
2018-06-10T13:30:09.541Z,26.50
2018-06-10T13:32:39.514Z,26.40
2018-06-10T13:35:09.530Z,26.40
2018-06-10T13:37:39.591Z,26.30
2018-06-10T13:40:09.631Z,26.40
2018-06-10T13:42:39.655Z,26.30
2018-06-10T13:45:09.768Z,26.30
2018-06-10T13:47:39.808Z,26.30
2018-06-10T13:50:09.893Z,26.30
2018-06-10T13:52:55.694Z,26.30
2018-06-10T13:55:25.768Z,26.30
2018-06-10T13:57:55.835Z,26.40
2018-06-10T14:00:26.213Z,26.40
2018-06-10T14:02:56.555Z,26.50
2018-06-10T14:05:27.201Z,26.50
2018-06-10T14:07:57.722Z,26.60
2018-06-10T14:10:28.141Z,26.60
2018-06-10T14:12:58.157Z,26.60
2018-06-10T14:15:28.171Z,26.60
2018-06-10T14:17:58.131Z,26.60
2018-06-10T14:20:28.131Z,26.60
2018-06-10T14:22:58.206Z,26.60
2018-06-10T14:25:28.238Z,26.70
2018-06-10T14:27:58.258Z,26.70
2018-06-10T14:30:28.287Z,26.80
2018-06-10T14:32:58.368Z,26.90
2018-06-10T14:37:58.171Z,27.00
2018-06-10T14:40:28.238Z,27.10
2018-06-10T14:42:58.331Z,27.10
2018-06-10T14:45:28.450Z,27.10
2018-06-10T14:47:58.569Z,27.10
2018-06-10T14:50:28.642Z,27.00
2018-06-10T14:52:58.836Z,26.90
2018-06-10T14:55:28.930Z,26.80
2018-06-10T14:57:59.021Z,26.80
2018-06-10T15:00:29.047Z,26.80
2018-06-10T15:02:59.042Z,26.80
2018-06-10T15:05:29.052Z,26.80
2018-06-10T15:07:59.092Z,26.80
2018-06-10T15:10:29.081Z,26.90
2018-06-10T15:12:59.081Z,26.90
2018-06-10T15:15:29.122Z,26.90
2018-06-10T15:17:59.297Z,26.90
2018-06-10T15:22:58.957Z,26.80
2018-06-10T15:25:29.008Z,26.70
2018-06-10T15:27:59.021Z,26.70
2018-06-10T15:30:29.014Z,26.80
2018-06-10T15:32:59.089Z,26.80
2018-06-10T15:35:29.101Z,26.70
2018-06-10T15:37:59.094Z,26.70
2018-06-10T15:40:32.606Z,26.70
2018-06-10T15:43:37.250Z,26.60
2018-06-10T15:46:08.126Z,26.60
2018-06-10T15:48:38.204Z,26.60
2018-06-10T15:51:08.245Z,26.60
2018-06-10T15:53:38.366Z,26.60
2018-06-10T15:56:08.417Z,26.50
2018-06-10T15:58:38.407Z,26.50
2018-06-10T16:01:08.588Z,26.50
2018-06-10T16:03:38.655Z,26.50
2018-06-10T16:06:08.808Z,26.50
2018-06-10T16:08:38.880Z,26.50
2018-06-10T16:11:08.886Z,26.50
2018-06-10T16:13:39.174Z,26.50
2018-06-10T16:16:09.241Z,26.60
2018-06-10T16:18:39.214Z,26.60
2018-06-10T16:21:10.469Z,26.60
2018-06-10T16:23:40.531Z,26.60
2018-06-10T16:26:10.565Z,26.60
2018-06-10T16:28:40.520Z,26.60
2018-06-10T16:31:10.651Z,26.60
2018-06-10T16:33:40.588Z,26.60
2018-06-10T16:36:10.567Z,26.60
2018-06-10T16:38:40.572Z,26.60
2018-06-10T16:41:10.560Z,26.60
2018-06-10T16:43:40.542Z,26.50
2018-06-10T16:46:10.502Z,26.50
2018-06-10T16:48:40.412Z,26.50
2018-06-10T16:51:10.373Z,26.40
2018-06-10T16:53:40.330Z,26.40
2018-06-10T16:56:10.376Z,26.40
2018-06-10T16:58:40.437Z,26.30
2018-06-10T17:01:10.476Z,26.30
2018-06-10T17:03:40.516Z,26.30
2018-06-10T17:06:10.565Z,26.20
2018-06-10T17:08:40.702Z,26.20
2018-06-10T17:11:10.825Z,26.10
2018-06-10T17:13:40.948Z,26.10
2018-06-10T17:16:11.068Z,26.10
2018-06-10T17:18:41.062Z,26.00
2018-06-10T17:21:11.129Z,26.00
2018-06-10T17:23:41.177Z,25.90
2018-06-10T17:26:11.214Z,25.90
2018-06-10T17:33:40.385Z,25.60
2018-06-10T17:41:40.088Z,25.50
2018-06-10T17:44:14.666Z,25.50
2018-06-10T17:46:45.208Z,25.40
2018-06-10T17:49:16.603Z,25.40
2018-06-10T17:51:47.491Z,25.30
2018-06-10T17:54:17.599Z,25.30
2018-06-10T17:56:47.599Z,25.30
2018-06-10T17:59:17.560Z,25.20
2018-06-10T18:01:47.577Z,25.20
2018-06-10T18:04:17.619Z,25.10
2018-06-10T18:06:47.682Z,25.10
2018-06-10T18:09:17.880Z,25.00
2018-06-10T18:11:48.943Z,25.00
2018-06-10T18:14:18.941Z,24.90
2018-06-10T18:16:48.945Z,24.90
2018-06-10T18:19:34.590Z,24.80
2018-06-10T18:22:04.593Z,24.80
2018-06-10T18:24:34.595Z,24.70
2018-06-10T18:27:04.826Z,24.60
2018-06-10T18:29:34.956Z,24.60
2018-06-10T18:32:05.109Z,24.60
2018-06-10T18:34:35.158Z,24.50
2018-06-10T18:37:05.186Z,24.50
2018-06-10T18:39:35.188Z,24.40
2018-06-10T18:42:05.237Z,24.40
2018-06-10T18:44:35.273Z,24.40
2018-06-10T18:47:05.275Z,24.30
2018-06-10T18:49:35.256Z,24.20
2018-06-10T18:52:05.288Z,24.20
2018-06-10T18:54:35.232Z,24.10
2018-06-10T18:57:05.288Z,24.10
2018-06-10T18:59:35.309Z,24.00
2018-06-10T19:02:10.923Z,23.90
2018-06-10T19:04:52.956Z,23.80
2018-06-10T19:07:23.387Z,23.70
2018-06-10T19:09:53.459Z,23.60
2018-06-10T19:12:23.570Z,23.50
2018-06-10T19:17:23.452Z,23.40
2018-06-10T19:19:53.484Z,23.30
2018-06-10T19:22:23.453Z,23.20
2018-06-10T19:24:53.493Z,23.20
2018-06-10T19:27:23.578Z,23.10
2018-06-10T19:30:00.339Z,23.10
2018-06-10T19:32:30.514Z,22.90
2018-06-10T19:35:00.609Z,22.80
2018-06-10T19:37:30.617Z,22.70
2018-06-10T19:40:00.687Z,22.60
2018-06-10T19:42:30.766Z,22.50
2018-06-10T19:45:00.800Z,22.50
2018-06-10T19:47:30.821Z,22.30
2018-06-10T19:50:00.786Z,22.20
2018-06-10T19:52:30.752Z,22.10
2018-06-10T19:55:00.908Z,22.00
2018-06-10T19:57:31.291Z,22.00
2018-06-10T20:00:01.358Z,21.90
2018-06-10T20:02:31.337Z,21.90
2018-06-10T20:05:01.364Z,21.80
2018-06-10T20:07:31.330Z,21.80
2018-06-10T20:10:01.329Z,21.70
2018-06-10T20:12:31.370Z,21.70
2018-06-10T20:15:01.370Z,21.60
2018-06-10T20:17:31.486Z,21.60
2018-06-10T20:20:01.577Z,21.50
2018-06-10T20:22:31.613Z,21.40
2018-06-10T20:25:01.662Z,21.30
2018-06-10T20:27:31.633Z,21.20
2018-06-10T20:30:01.723Z,21.10
2018-06-10T20:32:31.718Z,21.10
2018-06-10T20:35:01.675Z,21.00
2018-06-10T20:37:31.851Z,20.90
2018-06-10T20:40:01.949Z,20.70
2018-06-10T20:42:32.092Z,20.70
2018-06-10T20:45:02.142Z,20.60
2018-06-10T20:47:32.040Z,20.50
2018-06-10T20:50:02.078Z,20.50
2018-06-10T20:52:32.078Z,20.50
2018-06-10T20:55:02.484Z,20.40
2018-06-10T21:00:02.046Z,20.40
2018-06-10T21:02:32.074Z,20.30
2018-06-10T21:05:02.104Z,20.30
2018-06-10T21:07:32.040Z,20.30
2018-06-10T21:10:01.985Z,20.20
2018-06-10T21:12:31.944Z,20.20
2018-06-10T21:15:01.855Z,20.20
2018-06-10T21:17:31.747Z,20.20
2018-06-10T21:20:01.720Z,20.10
2018-06-10T21:22:31.710Z,20.10
2018-06-10T21:25:01.651Z,20.00
2018-06-10T21:27:31.533Z,19.90
2018-06-10T21:30:01.460Z,19.90
2018-06-10T21:32:31.475Z,19.90
2018-06-10T21:35:01.474Z,19.80
2018-06-10T21:37:31.370Z,19.70
2018-06-10T21:40:01.317Z,19.60
2018-06-10T21:42:31.320Z,19.50
2018-06-10T21:45:01.290Z,19.50
2018-06-10T21:47:31.352Z,19.50
2018-06-10T21:50:01.336Z,19.40
2018-06-10T21:52:31.381Z,19.40
2018-06-10T21:55:01.403Z,19.30
2018-06-10T21:57:31.896Z,19.30
2018-06-10T22:00:01.855Z,19.20
2018-06-10T22:02:31.774Z,19.10
2018-06-10T22:05:01.709Z,19.10
2018-06-10T22:07:31.731Z,19.10
2018-06-10T22:10:01.751Z,19.10
2018-06-10T22:12:32.345Z,19.00
2018-06-10T22:15:02.229Z,19.00
2018-06-10T22:17:32.169Z,19.00
2018-06-10T22:20:02.086Z,19.00
2018-06-10T22:22:31.948Z,19.00
2018-06-10T22:25:01.964Z,18.90
2018-06-10T22:27:31.848Z,18.90
2018-06-10T22:30:01.826Z,18.80
2018-06-10T22:32:31.740Z,18.70
2018-06-10T22:35:01.739Z,18.70
2018-06-10T22:37:31.679Z,18.70
2018-06-10T22:40:01.586Z,18.60
2018-06-10T22:42:31.546Z,18.60
2018-06-10T22:45:01.553Z,18.60
2018-06-10T22:47:31.428Z,18.50
2018-06-10T22:50:01.410Z,18.50
2018-06-10T22:52:31.395Z,18.50
2018-06-10T22:55:01.404Z,18.50
2018-06-10T22:57:31.431Z,18.50
2018-06-10T23:00:01.481Z,18.40
2018-06-10T23:02:31.479Z,18.40
2018-06-10T23:05:01.528Z,18.30
2018-06-10T23:07:31.540Z,18.30
2018-06-10T23:10:01.562Z,18.30
2018-06-10T23:12:31.604Z,18.20
2018-06-10T23:17:31.159Z,18.10
2018-06-10T23:20:01.175Z,18.10
2018-06-10T23:22:31.198Z,18.10
2018-06-10T23:25:01.234Z,18.00
2018-06-10T23:27:31.292Z,18.00
2018-06-10T23:30:01.263Z,18.00
2018-06-10T23:32:31.254Z,17.90
2018-06-10T23:35:01.145Z,17.90
2018-06-10T23:37:31.066Z,17.80
2018-06-10T23:40:00.992Z,17.80
2018-06-10T23:42:31.076Z,17.70
2018-06-10T23:45:01.011Z,17.70
2018-06-10T23:47:30.920Z,17.70
2018-06-10T23:50:00.809Z,17.70
2018-06-10T23:52:30.751Z,17.70
2018-06-10T23:55:00.618Z,17.70
2018-06-10T23:57:30.612Z,17.70
